Flight Track Log - Related Links

Times and Time Zones

All times are in EDT time to prevent confusion due to time zone crossing. See the AWE1524 flight status page for this flight to view local times or setup timezone preferences in your user account.

Time Position Orientation Groundspeed Altitude Reporting Facility
EDT Latitude Longitude Course Direction KTS MPH feet Rate Location/Type
Sun 02:16:28 PM 33.6333 -84.4667 101° East 163 188 2,500  Level Atlanta TRACON
Sun 02:17:28 PM 33.6167 -84.5333 253° West 220 253 4,400 2,100 Climbing Atlanta TRACON
Sun 02:18:00 PM 33.7855 -84.1141 73° East  Level Estimated
Sun 02:18:28 PM 33.5667 -84.5833 220° Southwest 277 319 6,700  Level Atlanta TRACON
Sun 02:19:00 PM 33.8349 -84.0092 101° East  Level Estimated
Sun 02:19:43 PM 33.4653 -84.5767 177° South 283 326 10,300  Level Atlanta Center
Sun 02:20:00 PM 33.7757 -83.9120 126° Southeast  Level FlightAware Approximate
Sun 02:20:43 PM 33.3906 -84.5289 152° Southeast 315 362 11,600  Level Atlanta Center
Sun 02:21:00 PM 33.8278 -83.8090 101° East  Level Estimated
Sun 02:21:43 PM 33.4117 -84.4047 78° East 286 329 13,700  Level Atlanta Center
Sun 02:22:43 PM 33.4558 -84.2828 67° East 337 388 15,800 2,050 Climbing Atlanta Center
Sun 02:23:43 PM 33.5042 -84.1583 65° Northeast 373 429 17,800 1,750 Climbing Atlanta Center
Sun 02:24:43 PM 33.5542 -84.0289 65° Northeast 416 479 19,300 1,500 Climbing Atlanta Center
Sun 02:25:43 PM 33.6042 -83.8942 66° East 437 503 20,800 1,700 Climbing Atlanta Center
Sun 02:26:43 PM 33.6561 -83.7569 66° East 442 509 22,700 1,950 Climbing Atlanta Center
Sun 02:27:43 PM 33.7081 -83.6217 65° Northeast 442 509 24,700 1,150 Climbing Atlanta Center
Sun 02:28:43 PM 33.7514 -83.5017 66° East 437 503 25,000 150 Climbing Atlanta Center
Sun 02:29:43 PM 33.8028 -83.3689 65° Northeast 437 503 25,000  Level Atlanta Center
Sun 02:30:43 PM 33.8522 -83.2333 66° East 437 503 25,000  Level Atlanta Center
Sun 02:31:43 PM 33.9033 -83.0978 66° East 442 509 25,000 -200 Level Atlanta Center
Sun 02:32:43 PM 33.9522 -82.9619 67° East 437 503 24,600 -500 Descending Atlanta Center
Sun 02:33:43 PM 34.0033 -82.8286 65° Northeast 437 503 24,000 -300 Descending Atlanta Center
Sun 02:34:43 PM 34.0519 -82.6925 67° East 437 503 24,000  Level Atlanta Center
Sun 02:35:43 PM 34.1067 -82.5436 66° East 437 503 24,000  Level Atlanta Center
Sun 02:36:43 PM 34.1572 -82.4222 63° Northeast 442 509 24,000  Level Atlanta Center
Sun 02:37:43 PM 34.2053 -82.2856 67° East 442 509 24,000 500 Level Atlanta Center
Sun 02:38:43 PM 34.2578 -82.1514 65° Northeast 442 509 25,000 -1,600 Climbing Atlanta Center
Sun 02:39:43 PM 34.3394 -82.0414 48° Northeast 437 503 20,800 -2,500 Descending Atlanta Center
Sun 02:40:43 PM 34.4150 -81.9464 46° Northeast 415 478 20,000 -1,500 Descending Atlanta Center
Sun 02:41:43 PM 34.4825 -81.8639 45° Northeast 373 429 17,800 -2,050 Descending Atlanta Center
Sun 02:42:43 PM 34.5478 -81.7817 46° Northeast 348 400 15,900 -2,036 Descending Atlanta Center
Sun 02:43:35 PM 34.6089 -81.7044 46° Northeast 329 379 14,000 -1,650 Descending Atlanta Center
Sun 02:44:43 PM 34.6781 -81.6139 47° Northeast 322 371 12,600 -891 Descending Atlanta Center
Sun 02:45:43 PM 34.7392 -81.5364 46° Northeast 316 364 12,100 -330 Descending Atlanta Center
Sun 02:46:32 PM 34.7942 -81.4689 45° Northeast 357 411 12,000 -466 Descending Atlanta Center
Sun 02:47:39 PM 34.8714 -81.3678 47° Northeast 364 419 11,200 -885 Descending Atlanta Center
Sun 02:48:34 PM 34.9361 -81.2822 47° Northeast 359 413 10,200 -569 Descending Atlanta Center
Sun 02:49:35 PM 34.9992 -81.2014 46° Northeast 330 380 10,100 -98 Descending Atlanta Center
Sun 02:50:36 PM 35.0558 -81.1286 46° Northeast 292 336 10,000 -281 Descending Atlanta Center
Sun 02:51:43 PM 35.1294 -81.0650 35° Northeast 290 334 9,500 -850 Descending Atlanta Center
Sun 02:52:43 PM 35.2108 -81.0722 356° North 274 315 8,200 -1,512 Descending Atlanta Center
Sun 02:53:46 PM 35.2925 -81.0794 356° North 281 323 6,400 -1,694 Descending Atlanta Center
Sun 02:54:47 PM 35.3697 -81.0869 355° North 270 311 4,700 -1,230 Descending Atlanta Center
Sun 02:55:48 PM 35.4233 -81.0594 23° Northeast 224 258 3,900 -590 Descending Atlanta Center
Sun 02:56:49 PM 35.3867 -81.0072 131° Southeast 178 205 3,500 -393 Descending Atlanta Center

Login

Don't have an account? Register now (free) for customized features, flight alerts, and more!